sensor_id;sensor_type;location;lat;lon;timestamp;P1;durP1;ratioP1;P2;durP2;ratioP2
21206;SDS011;10761;48.532;8.026;2024-03-29T00:00:58;1.77;;;0.70;;
21206;SDS011;10761;48.532;8.026;2024-03-29T00:03:25;2.22;;;0.40;;
21206;SDS011;10761;48.532;8.026;2024-03-29T00:05:52;0.90;;;0.50;;
21206;SDS011;10761;48.532;8.026;2024-03-29T00:08:17;1.92;;;0.65;;
21206;SDS011;10761;48.532;8.026;2024-03-29T00:10:43;0.50;;;0.45;;
21206;SDS011;10761;48.532;8.026;2024-03-29T00:13:11;1.75;;;0.50;;
21206;SDS011;10761;48.532;8.026;2024-03-29T00:15:38;1.63;;;0.50;;
21206;SDS011;10761;48.532;8.026;2024-03-29T00:18:04;1.65;;;0.75;;
21206;SDS011;10761;48.532;8.026;2024-03-29T00:20:32;3.28;;;0.70;;
21206;SDS011;10761;48.532;8.026;2024-03-29T00:22:58;2.13;;;0.70;;
21206;SDS011;10761;48.532;8.026;2024-03-29T00:25:23;2.35;;;0.77;;
21206;SDS011;10761;48.532;8.026;2024-03-29T00:27:49;1.55;;;0.70;;
21206;SDS011;10761;48.532;8.026;2024-03-29T00:30:16;2.13;;;0.70;;
21206;SDS011;10761;48.532;8.026;2024-03-29T00:32:42;1.40;;;0.60;;
21206;SDS011;10761;48.532;8.026;2024-03-29T00:35:10;0.75;;;0.57;;
21206;SDS011;10761;48.532;8.026;2024-03-29T00:37:36;1.42;;;0.70;;
21206;SDS011;10761;48.532;8.026;2024-03-29T00:40:01;0.90;;;0.50;;
21206;SDS011;10761;48.532;8.026;2024-03-29T00:42:27;0.73;;;0.50;;
21206;SDS011;10761;48.532;8.026;2024-03-29T00:44:53;1.30;;;0.55;;
21206;SDS011;10761;48.532;8.026;2024-03-29T00:47:18;1.48;;;0.68;;
21206;SDS011;10761;48.532;8.026;2024-03-29T00:49:44;0.80;;;0.63;;
21206;SDS011;10761;48.532;8.026;2024-03-29T00:52:09;1.90;;;0.57;;
21206;SDS011;10761;48.532;8.026;2024-03-29T00:54:35;3.05;;;1.00;;
21206;SDS011;10761;48.532;8.026;2024-03-29T00:57:00;1.33;;;0.63;;
21206;SDS011;10761;48.532;8.026;2024-03-29T00:59:26;1.55;;;0.60;;
21206;SDS011;10761;48.532;8.026;2024-03-29T01:01:51;1.35;;;0.60;;
21206;SDS011;10761;48.532;8.026;2024-03-29T01:04:17;0.75;;;0.40;;
21206;SDS011;10761;48.532;8.026;2024-03-29T01:06:43;1.92;;;0.73;;
21206;SDS011;10761;48.532;8.026;2024-03-29T01:09:09;0.85;;;0.50;;
21206;SDS011;10761;48.532;8.026;2024-03-29T01:11:38;0.32;;;0.30;;
21206;SDS011;10761;48.532;8.026;2024-03-29T01:14:04;1.77;;;0.40;;
21206;SDS011;10761;48.532;8.026;2024-03-29T01:16:30;1.17;;;0.50;;
21206;SDS011;10761;48.532;8.026;2024-03-29T01:18:59;2.38;;;0.65;;
21206;SDS011;10761;48.532;8.026;2024-03-29T01:21:28;0.93;;;0.60;;
21206;SDS011;10761;48.532;8.026;2024-03-29T01:23:53;0.70;;;0.45;;
21206;SDS011;10761;48.532;8.026;2024-03-29T01:26:19;1.45;;;0.50;;
21206;SDS011;10761;48.532;8.026;2024-03-29T01:28:44;2.05;;;0.60;;
21206;SDS011;10761;48.532;8.026;2024-03-29T01:31:10;1.10;;;0.40;;
21206;SDS011;10761;48.532;8.026;2024-03-29T01:33:37;0.75;;;0.40;;
21206;SDS011;10761;48.532;8.026;2024-03-29T01:36:04;1.17;;;0.60;;
21206;SDS011;10761;48.532;8.026;2024-03-29T01:38:30;0.90;;;0.55;;
21206;SDS011;10761;48.532;8.026;2024-03-29T01:40:56;1.45;;;0.50;;
21206;SDS011;10761;48.532;8.026;2024-03-29T01:43:22;2.80;;;0.60;;
21206;SDS011;10761;48.532;8.026;2024-03-29T01:45:49;2.03;;;0.57;;
21206;SDS011;10761;48.532;8.026;2024-03-29T01:48:17;1.52;;;0.60;;
21206;SDS011;10761;48.532;8.026;2024-03-29T01:50:45;2.80;;;0.70;;
21206;SDS011;10761;48.532;8.026;2024-03-29T01:53:12;4.75;;;0.60;;
21206;SDS011;10761;48.532;8.026;2024-03-29T01:55:39;2.63;;;0.47;;
21206;SDS011;10761;48.532;8.026;2024-03-29T01:58:05;0.82;;;0.40;;
21206;SDS011;10761;48.532;8.026;2024-03-29T02:00:39;1.13;;;0.50;;
21206;SDS011;10761;48.532;8.026;2024-03-29T02:03:09;1.33;;;0.40;;
21206;SDS011;10761;48.532;8.026;2024-03-29T02:05:38;1.27;;;0.50;;
21206;SDS011;10761;48.532;8.026;2024-03-29T02:08:07;1.30;;;0.47;;
21206;SDS011;10761;48.532;8.026;2024-03-29T02:10:34;0.47;;;0.40;;
21206;SDS011;10761;48.532;8.026;2024-03-29T02:13:00;1.45;;;0.40;;
21206;SDS011;10761;48.532;8.026;2024-03-29T02:15:27;0.50;;;0.38;;
21206;SDS011;10761;48.532;8.026;2024-03-29T02:17:56;2.10;;;0.50;;
21206;SDS011;10761;48.532;8.026;2024-03-29T02:20:22;0.88;;;0.73;;
21206;SDS011;10761;48.532;8.026;2024-03-29T02:25:20;1.25;;;0.47;;
21206;SDS011;10761;48.532;8.026;2024-03-29T02:27:47;0.38;;;0.30;;
21206;SDS011;10761;48.532;8.026;2024-03-29T02:30:16;1.10;;;0.40;;
21206;SDS011;10761;48.532;8.026;2024-03-29T02:32:42;0.77;;;0.40;;
21206;SDS011;10761;48.532;8.026;2024-03-29T02:35:08;0.85;;;0.35;;
21206;SDS011;10761;48.532;8.026;2024-03-29T02:37:34;1.25;;;0.30;;
21206;SDS011;10761;48.532;8.026;2024-03-29T02:40:01;0.55;;;0.30;;
21206;SDS011;10761;48.532;8.026;2024-03-29T02:42:26;1.17;;;0.43;;
21206;SDS011;10761;48.532;8.026;2024-03-29T02:44:52;0.57;;;0.35;;
21206;SDS011;10761;48.532;8.026;2024-03-29T02:47:18;1.25;;;0.40;;
21206;SDS011;10761;48.532;8.026;2024-03-29T02:49:43;1.02;;;0.60;;
21206;SDS011;10761;48.532;8.026;2024-03-29T02:52:09;0.60;;;0.40;;
21206;SDS011;10761;48.532;8.026;2024-03-29T02:54:34;0.85;;;0.30;;
21206;SDS011;10761;48.532;8.026;2024-03-29T02:57:00;0.32;;;0.20;;
21206;SDS011;10761;48.532;8.026;2024-03-29T02:59:25;0.55;;;0.40;;
21206;SDS011;10761;48.532;8.026;2024-03-29T03:01:51;2.33;;;0.60;;
21206;SDS011;10761;48.532;8.026;2024-03-29T03:04:16;0.57;;;0.40;;
21206;SDS011;10761;48.532;8.026;2024-03-29T03:06:42;1.60;;;0.90;;
21206;SDS011;10761;48.532;8.026;2024-03-29T03:09:08;0.75;;;0.60;;
21206;SDS011;10761;48.532;8.026;2024-03-29T03:11:52;1.35;;;0.70;;
21206;SDS011;10761;48.532;8.026;2024-03-29T03:14:17;0.80;;;0.43;;
21206;SDS011;10761;48.532;8.026;2024-03-29T03:16:43;0.63;;;0.43;;
21206;SDS011;10761;48.532;8.026;2024-03-29T03:19:08;0.82;;;0.60;;
21206;SDS011;10761;48.532;8.026;2024-03-29T03:21:35;1.30;;;0.40;;
21206;SDS011;10761;48.532;8.026;2024-03-29T03:24:00;1.48;;;0.30;;
21206;SDS011;10761;48.532;8.026;2024-03-29T03:26:26;1.35;;;0.30;;
21206;SDS011;10761;48.532;8.026;2024-03-29T03:28:51;0.28;;;0.28;;
21206;SDS011;10761;48.532;8.026;2024-03-29T03:31:17;2.50;;;0.40;;
21206;SDS011;10761;48.532;8.026;2024-03-29T03:33:43;1.52;;;0.50;;
21206;SDS011;10761;48.532;8.026;2024-03-29T03:36:08;0.65;;;0.22;;
21206;SDS011;10761;48.532;8.026;2024-03-29T03:38:34;1.27;;;0.50;;
21206;SDS011;10761;48.532;8.026;2024-03-29T03:41:01;0.70;;;0.38;;
21206;SDS011;10761;48.532;8.026;2024-03-29T03:43:27;0.50;;;0.30;;
21206;SDS011;10761;48.532;8.026;2024-03-29T03:45:53;0.52;;;0.40;;
21206;SDS011;10761;48.532;8.026;2024-03-29T03:48:18;1.15;;;0.70;;
21206;SDS011;10761;48.532;8.026;2024-03-29T03:50:44;0.93;;;0.50;;
21206;SDS011;10761;48.532;8.026;2024-03-29T03:53:09;0.52;;;0.40;;
21206;SDS011;10761;48.532;8.026;2024-03-29T03:55:35;1.17;;;0.60;;
21206;SDS011;10761;48.532;8.026;2024-03-29T03:58:02;1.27;;;0.60;;
21206;SDS011;10761;48.532;8.026;2024-03-29T04:00:28;1.80;;;0.68;;
21206;SDS011;10761;48.532;8.026;2024-03-29T04:02:54;3.42;;;0.85;;
21206;SDS011;10761;48.532;8.026;2024-03-29T04:05:21;1.88;;;0.82;;
21206;SDS011;10761;48.532;8.026;2024-03-29T04:07:47;1.30;;;1.00;;
21206;SDS011;10761;48.532;8.026;2024-03-29T04:10:13;1.55;;;0.93;;
21206;SDS011;10761;48.532;8.026;2024-03-29T04:12:39;1.75;;;1.10;;
21206;SDS011;10761;48.532;8.026;2024-03-29T04:15:04;1.10;;;0.95;;
21206;SDS011;10761;48.532;8.026;2024-03-29T04:17:31;2.92;;;1.08;;
21206;SDS011;10761;48.532;8.026;2024-03-29T04:19:57;2.85;;;1.02;;
21206;SDS011;10761;48.532;8.026;2024-03-29T04:22:23;2.35;;;1.25;;
21206;SDS011;10761;48.532;8.026;2024-03-29T04:24:49;1.88;;;1.10;;
21206;SDS011;10761;48.532;8.026;2024-03-29T04:27:14;0.98;;;0.80;;
21206;SDS011;10761;48.532;8.026;2024-03-29T04:29:40;2.22;;;1.20;;
21206;SDS011;10761;48.532;8.026;2024-03-29T04:32:06;1.70;;;1.02;;
21206;SDS011;10761;48.532;8.026;2024-03-29T04:34:31;2.40;;;1.00;;
21206;SDS011;10761;48.532;8.026;2024-03-29T04:36:57;2.25;;;1.20;;
21206;SDS011;10761;48.532;8.026;2024-03-29T04:39:22;3.08;;;1.25;;
21206;SDS011;10761;48.532;8.026;2024-03-29T04:41:48;1.40;;;1.20;;
21206;SDS011;10761;48.532;8.026;2024-03-29T04:44:22;1.73;;;1.02;;
21206;SDS011;10761;48.532;8.026;2024-03-29T04:46:49;3.60;;;1.13;;
21206;SDS011;10761;48.532;8.026;2024-03-29T04:49:15;3.08;;;1.23;;
21206;SDS011;10761;48.532;8.026;2024-03-29T04:51:42;1.90;;;1.15;;
21206;SDS011;10761;48.532;8.026;2024-03-29T04:54:08;3.20;;;1.40;;
21206;SDS011;10761;48.532;8.026;2024-03-29T04:56:34;2.17;;;1.23;;
21206;SDS011;10761;48.532;8.026;2024-03-29T04:59:01;2.67;;;1.55;;
21206;SDS011;10761;48.532;8.026;2024-03-29T05:01:27;1.60;;;1.20;;
21206;SDS011;10761;48.532;8.026;2024-03-29T05:03:53;3.75;;;1.33;;
21206;SDS011;10761;48.532;8.026;2024-03-29T05:06:18;4.88;;;1.40;;
21206;SDS011;10761;48.532;8.026;2024-03-29T05:08:44;2.42;;;1.40;;
21206;SDS011;10761;48.532;8.026;2024-03-29T05:11:09;4.22;;;1.40;;
21206;SDS011;10761;48.532;8.026;2024-03-29T05:13:39;2.03;;;1.30;;
21206;SDS011;10761;48.532;8.026;2024-03-29T05:16:05;3.67;;;1.33;;
21206;SDS011;10761;48.532;8.026;2024-03-29T05:18:31;3.92;;;1.50;;
21206;SDS011;10761;48.532;8.026;2024-03-29T05:20:56;1.30;;;1.20;;
21206;SDS011;10761;48.532;8.026;2024-03-29T05:23:22;3.38;;;1.15;;
21206;SDS011;10761;48.532;8.026;2024-03-29T05:25:47;3.63;;;1.60;;
21206;SDS011;10761;48.532;8.026;2024-03-29T05:28:14;3.45;;;1.40;;
21206;SDS011;10761;48.532;8.026;2024-03-29T05:30:40;3.83;;;1.48;;
21206;SDS011;10761;48.532;8.026;2024-03-29T05:33:05;1.92;;;1.38;;
21206;SDS011;10761;48.532;8.026;2024-03-29T05:35:32;4.80;;;1.50;;
21206;SDS011;10761;48.532;8.026;2024-03-29T05:37:58;5.45;;;1.60;;
21206;SDS011;10761;48.532;8.026;2024-03-29T05:40:24;2.30;;;1.30;;
21206;SDS011;10761;48.532;8.026;2024-03-29T05:42:52;3.13;;;1.75;;
21206;SDS011;10761;48.532;8.026;2024-03-29T05:45:22;1.75;;;1.42;;
21206;SDS011;10761;48.532;8.026;2024-03-29T05:47:53;3.42;;;1.60;;
21206;SDS011;10761;48.532;8.026;2024-03-29T05:50:19;2.53;;;1.58;;
21206;SDS011;10761;48.532;8.026;2024-03-29T05:52:45;4.47;;;1.50;;
21206;SDS011;10761;48.532;8.026;2024-03-29T05:55:11;2.58;;;1.40;;
21206;SDS011;10761;48.532;8.026;2024-03-29T05:57:36;4.10;;;1.70;;
21206;SDS011;10761;48.532;8.026;2024-03-29T06:00:07;4.38;;;1.80;;
21206;SDS011;10761;48.532;8.026;2024-03-29T06:02:36;7.20;;;1.63;;
21206;SDS011;10761;48.532;8.026;2024-03-29T06:05:02;2.97;;;1.42;;
21206;SDS011;10761;48.532;8.026;2024-03-29T06:07:28;3.40;;;1.58;;
21206;SDS011;10761;48.532;8.026;2024-03-29T06:09:54;2.88;;;1.50;;
21206;SDS011;10761;48.532;8.026;2024-03-29T06:12:20;3.60;;;1.63;;
21206;SDS011;10761;48.532;8.026;2024-03-29T06:14:45;2.42;;;1.40;;
21206;SDS011;10761;48.532;8.026;2024-03-29T06:17:30;4.45;;;1.60;;
21206;SDS011;10761;48.532;8.026;2024-03-29T06:19:55;6.15;;;1.75;;
21206;SDS011;10761;48.532;8.026;2024-03-29T06:22:22;2.05;;;1.20;;
21206;SDS011;10761;48.532;8.026;2024-03-29T06:24:49;4.60;;;1.30;;
21206;SDS011;10761;48.532;8.026;2024-03-29T06:27:16;1.95;;;1.30;;
21206;SDS011;10761;48.532;8.026;2024-03-29T06:29:43;2.38;;;1.20;;
21206;SDS011;10761;48.532;8.026;2024-03-29T06:32:09;3.88;;;1.60;;
21206;SDS011;10761;48.532;8.026;2024-03-29T06:34:34;2.45;;;1.30;;
21206;SDS011;10761;48.532;8.026;2024-03-29T06:37:00;3.88;;;1.60;;
21206;SDS011;10761;48.532;8.026;2024-03-29T06:39:26;3.08;;;1.30;;
21206;SDS011;10761;48.532;8.026;2024-03-29T06:41:52;3.65;;;2.33;;
21206;SDS011;10761;48.532;8.026;2024-03-29T06:44:18;7.13;;;4.53;;
21206;SDS011;10761;48.532;8.026;2024-03-29T06:46:43;12.18;;;6.25;;
21206;SDS011;10761;48.532;8.026;2024-03-29T06:49:09;6.78;;;4.15;;
21206;SDS011;10761;48.532;8.026;2024-03-29T06:51:34;2.88;;;1.75;;
21206;SDS011;10761;48.532;8.026;2024-03-29T06:54:00;3.78;;;2.33;;
21206;SDS011;10761;48.532;8.026;2024-03-29T06:56:25;2.38;;;1.75;;
21206;SDS011;10761;48.532;8.026;2024-03-29T06:58:51;3.47;;;1.83;;
21206;SDS011;10761;48.532;8.026;2024-03-29T07:01:17;6.22;;;3.25;;
21206;SDS011;10761;48.532;8.026;2024-03-29T07:03:42;3.35;;;1.88;;
21206;SDS011;10761;48.532;8.026;2024-03-29T07:06:08;4.32;;;1.80;;
21206;SDS011;10761;48.532;8.026;2024-03-29T07:08:33;2.05;;;1.70;;
21206;SDS011;10761;48.532;8.026;2024-03-29T07:11:02;5.07;;;2.90;;
21206;SDS011;10761;48.532;8.026;2024-03-29T07:13:29;6.78;;;3.38;;
21206;SDS011;10761;48.532;8.026;2024-03-29T07:15:58;4.68;;;3.10;;
21206;SDS011;10761;48.532;8.026;2024-03-29T07:18:25;3.67;;;2.42;;
21206;SDS011;10761;48.532;8.026;2024-03-29T07:20:50;3.00;;;1.30;;
21206;SDS011;10761;48.532;8.026;2024-03-29T07:23:16;4.87;;;1.40;;
21206;SDS011;10761;48.532;8.026;2024-03-29T07:25:45;3.55;;;1.35;;
21206;SDS011;10761;48.532;8.026;2024-03-29T07:28:22;2.45;;;1.40;;
21206;SDS011;10761;48.532;8.026;2024-03-29T07:30:47;5.60;;;3.13;;
21206;SDS011;10761;48.532;8.026;2024-03-29T07:33:15;4.90;;;2.70;;
21206;SDS011;10761;48.532;8.026;2024-03-29T07:35:40;3.33;;;1.50;;
21206;SDS011;10761;48.532;8.026;2024-03-29T07:38:07;1.20;;;1.00;;
21206;SDS011;10761;48.532;8.026;2024-03-29T07:40:32;0.95;;;0.70;;
21206;SDS011;10761;48.532;8.026;2024-03-29T07:42:59;0.80;;;0.57;;
21206;SDS011;10761;48.532;8.026;2024-03-29T07:45:25;0.73;;;0.57;;
21206;SDS011;10761;48.532;8.026;2024-03-29T07:47:52;1.80;;;0.50;;
21206;SDS011;10761;48.532;8.026;2024-03-29T07:50:18;2.05;;;0.70;;
21206;SDS011;10761;48.532;8.026;2024-03-29T07:52:47;1.88;;;0.60;;
21206;SDS011;10761;48.532;8.026;2024-03-29T07:55:13;1.70;;;0.63;;
21206;SDS011;10761;48.532;8.026;2024-03-29T07:57:39;2.10;;;0.63;;
21206;SDS011;10761;48.532;8.026;2024-03-29T08:00:04;0.55;;;0.40;;
21206;SDS011;10761;48.532;8.026;2024-03-29T08:02:31;6.22;;;0.90;;
21206;SDS011;10761;48.532;8.026;2024-03-29T08:04:57;1.00;;;0.50;;
21206;SDS011;10761;48.532;8.026;2024-03-29T08:07:22;2.05;;;0.40;;
21206;SDS011;10761;48.532;8.026;2024-03-29T08:09:49;1.73;;;0.50;;
21206;SDS011;10761;48.532;8.026;2024-03-29T08:12:15;2.42;;;0.73;;
21206;SDS011;10761;48.532;8.026;2024-03-29T08:14:41;1.05;;;0.50;;
21206;SDS011;10761;48.532;8.026;2024-03-29T08:17:07;1.65;;;0.60;;
21206;SDS011;10761;48.532;8.026;2024-03-29T08:19:35;1.15;;;0.57;;
21206;SDS011;10761;48.532;8.026;2024-03-29T08:22:01;1.05;;;0.55;;
21206;SDS011;10761;48.532;8.026;2024-03-29T08:24:27;1.70;;;0.45;;
21206;SDS011;10761;48.532;8.026;2024-03-29T08:26:53;0.90;;;0.40;;
21206;SDS011;10761;48.532;8.026;2024-03-29T08:29:18;1.40;;;0.60;;
21206;SDS011;10761;48.532;8.026;2024-03-29T08:31:44;2.65;;;0.70;;
21206;SDS011;10761;48.532;8.026;2024-03-29T08:34:09;2.35;;;0.60;;
21206;SDS011;10761;48.532;8.026;2024-03-29T08:36:38;0.80;;;0.45;;
21206;SDS011;10761;48.532;8.026;2024-03-29T08:39:04;2.05;;;0.65;;
21206;SDS011;10761;48.532;8.026;2024-03-29T08:41:29;3.92;;;0.63;;
21206;SDS011;10761;48.532;8.026;2024-03-29T08:43:55;0.93;;;0.43;;
21206;SDS011;10761;48.532;8.026;2024-03-29T08:46:20;3.20;;;0.70;;
21206;SDS011;10761;48.532;8.026;2024-03-29T08:48:46;2.25;;;1.10;;
21206;SDS011;10761;48.532;8.026;2024-03-29T08:51:13;3.53;;;1.40;;
21206;SDS011;10761;48.532;8.026;2024-03-29T08:53:39;2.15;;;1.25;;
21206;SDS011;10761;48.532;8.026;2024-03-29T08:56:05;2.67;;;0.80;;
21206;SDS011;10761;48.532;8.026;2024-03-29T08:58:31;2.20;;;0.90;;
21206;SDS011;10761;48.532;8.026;2024-03-29T09:00:57;1.38;;;0.82;;
21206;SDS011;10761;48.532;8.026;2024-03-29T09:03:23;1.07;;;0.70;;
21206;SDS011;10761;48.532;8.026;2024-03-29T09:05:49;2.35;;;0.90;;
21206;SDS011;10761;48.532;8.026;2024-03-29T09:08:16;4.03;;;0.80;;
21206;SDS011;10761;48.532;8.026;2024-03-29T09:10:42;3.03;;;1.23;;
21206;SDS011;10761;48.532;8.026;2024-03-29T09:13:08;5.72;;;2.67;;
21206;SDS011;10761;48.532;8.026;2024-03-29T09:15:35;5.03;;;3.35;;
21206;SDS011;10761;48.532;8.026;2024-03-29T09:18:01;5.20;;;3.67;;
21206;SDS011;10761;48.532;8.026;2024-03-29T09:20:34;7.25;;;3.97;;
21206;SDS011;10761;48.532;8.026;2024-03-29T09:23:03;3.60;;;2.30;;
21206;SDS011;10761;48.532;8.026;2024-03-29T09:25:29;2.78;;;1.40;;
21206;SDS011;10761;48.532;8.026;2024-03-29T09:27:55;4.72;;;1.48;;
21206;SDS011;10761;48.532;8.026;2024-03-29T09:30:20;5.63;;;1.33;;
21206;SDS011;10761;48.532;8.026;2024-03-29T09:32:47;3.00;;;1.27;;
21206;SDS011;10761;48.532;8.026;2024-03-29T09:35:15;1.35;;;1.00;;
21206;SDS011;10761;48.532;8.026;2024-03-29T09:37:40;3.17;;;1.23;;
21206;SDS011;10761;48.532;8.026;2024-03-29T09:40:07;2.03;;;1.17;;
21206;SDS011;10761;48.532;8.026;2024-03-29T09:42:35;5.07;;;1.80;;
21206;SDS011;10761;48.532;8.026;2024-03-29T09:45:03;2.25;;;1.40;;
21206;SDS011;10761;48.532;8.026;2024-03-29T09:47:31;4.72;;;2.25;;
21206;SDS011;10761;48.532;8.026;2024-03-29T09:49:59;3.17;;;2.33;;
21206;SDS011;10761;48.532;8.026;2024-03-29T09:52:27;8.45;;;4.95;;
21206;SDS011;10761;48.532;8.026;2024-03-29T09:54:53;21.50;;;8.30;;
21206;SDS011;10761;48.532;8.026;2024-03-29T09:57:20;14.02;;;9.45;;
21206;SDS011;10761;48.532;8.026;2024-03-29T09:59:46;9.52;;;6.38;;
21206;SDS011;10761;48.532;8.026;2024-03-29T10:02:15;7.05;;;4.05;;
21206;SDS011;10761;48.532;8.026;2024-03-29T10:04:42;2.70;;;1.30;;
21206;SDS011;10761;48.532;8.026;2024-03-29T10:07:10;3.13;;;2.10;;
21206;SDS011;10761;48.532;8.026;2024-03-29T10:09:37;4.03;;;2.60;;
21206;SDS011;10761;48.532;8.026;2024-03-29T10:12:04;5.22;;;2.70;;
21206;SDS011;10761;48.532;8.026;2024-03-29T10:14:30;6.07;;;3.22;;
21206;SDS011;10761;48.532;8.026;2024-03-29T10:16:57;12.15;;;6.85;;
21206;SDS011;10761;48.532;8.026;2024-03-29T10:19:23;9.35;;;6.10;;
21206;SDS011;10761;48.532;8.026;2024-03-29T10:21:48;8.95;;;5.88;;
21206;SDS011;10761;48.532;8.026;2024-03-29T10:24:14;4.43;;;2.60;;
21206;SDS011;10761;48.532;8.026;2024-03-29T10:26:42;2.58;;;1.65;;
21206;SDS011;10761;48.532;8.026;2024-03-29T10:29:08;2.92;;;1.27;;
21206;SDS011;10761;48.532;8.026;2024-03-29T10:31:34;3.25;;;1.20;;
21206;SDS011;10761;48.532;8.026;2024-03-29T10:34:03;2.35;;;1.08;;
21206;SDS011;10761;48.532;8.026;2024-03-29T10:36:33;4.15;;;1.10;;
21206;SDS011;10761;48.532;8.026;2024-03-29T10:39:08;1.73;;;1.20;;
21206;SDS011;10761;48.532;8.026;2024-03-29T10:41:39;1.38;;;1.15;;
21206;SDS011;10761;48.532;8.026;2024-03-29T10:44:06;5.43;;;1.80;;
21206;SDS011;10761;48.532;8.026;2024-03-29T10:46:36;3.35;;;1.60;;
21206;SDS011;10761;48.532;8.026;2024-03-29T10:49:03;3.42;;;1.70;;
21206;SDS011;10761;48.532;8.026;2024-03-29T10:51:31;1.30;;;1.13;;
21206;SDS011;10761;48.532;8.026;2024-03-29T10:53:57;2.40;;;1.10;;
21206;SDS011;10761;48.532;8.026;2024-03-29T10:56:24;3.72;;;1.80;;
21206;SDS011;10761;48.532;8.026;2024-03-29T10:58:51;2.17;;;1.30;;
21206;SDS011;10761;48.532;8.026;2024-03-29T11:01:21;1.67;;;0.85;;
21206;SDS011;10761;48.532;8.026;2024-03-29T11:03:53;1.63;;;1.00;;
21206;SDS011;10761;48.532;8.026;2024-03-29T11:06:23;2.55;;;1.55;;
21206;SDS011;10761;48.532;8.026;2024-03-29T11:08:54;2.58;;;1.30;;
21206;SDS011;10761;48.532;8.026;2024-03-29T11:11:23;1.88;;;1.23;;
21206;SDS011;10761;48.532;8.026;2024-03-29T11:14:08;1.23;;;1.10;;
21206;SDS011;10761;48.532;8.026;2024-03-29T11:16:39;2.63;;;1.48;;
21206;SDS011;10761;48.532;8.026;2024-03-29T11:19:10;5.82;;;2.10;;
21206;SDS011;10761;48.532;8.026;2024-03-29T11:21:38;4.13;;;1.70;;
21206;SDS011;10761;48.532;8.026;2024-03-29T11:24:04;3.05;;;1.60;;
21206;SDS011;10761;48.532;8.026;2024-03-29T11:26:30;3.97;;;2.00;;
21206;SDS011;10761;48.532;8.026;2024-03-29T11:28:56;3.45;;;1.60;;
21206;SDS011;10761;48.532;8.026;2024-03-29T11:31:24;3.80;;;2.58;;
21206;SDS011;10761;48.532;8.026;2024-03-29T11:33:50;5.47;;;1.90;;
21206;SDS011;10761;48.532;8.026;2024-03-29T11:36:29;4.60;;;1.73;;
21206;SDS011;10761;48.532;8.026;2024-03-29T11:38:56;5.68;;;1.50;;
21206;SDS011;10761;48.532;8.026;2024-03-29T11:41:23;1.88;;;1.48;;
21206;SDS011;10761;48.532;8.026;2024-03-29T11:43:50;2.60;;;1.60;;
21206;SDS011;10761;48.532;8.026;2024-03-29T11:46:16;2.35;;;1.38;;
21206;SDS011;10761;48.532;8.026;2024-03-29T11:48:42;4.53;;;1.70;;
21206;SDS011;10761;48.532;8.026;2024-03-29T11:51:15;3.88;;;1.52;;
21206;SDS011;10761;48.532;8.026;2024-03-29T11:53:43;2.80;;;1.52;;
21206;SDS011;10761;48.532;8.026;2024-03-29T11:56:13;3.58;;;1.63;;
21206;SDS011;10761;48.532;8.026;2024-03-29T11:58:39;3.03;;;1.80;;
21206;SDS011;10761;48.532;8.026;2024-03-29T12:01:05;3.33;;;2.00;;
21206;SDS011;10761;48.532;8.026;2024-03-29T12:03:37;4.05;;;2.30;;
21206;SDS011;10761;48.532;8.026;2024-03-29T12:06:04;3.88;;;1.80;;
21206;SDS011;10761;48.532;8.026;2024-03-29T12:08:31;3.85;;;2.60;;
21206;SDS011;10761;48.532;8.026;2024-03-29T12:10:58;4.32;;;2.20;;
21206;SDS011;10761;48.532;8.026;2024-03-29T12:13:24;2.72;;;1.90;;
21206;SDS011;10761;48.532;8.026;2024-03-29T12:15:50;3.20;;;2.40;;
21206;SDS011;10761;48.532;8.026;2024-03-29T12:18:15;3.33;;;1.98;;
21206;SDS011;10761;48.532;8.026;2024-03-29T12:20:41;2.88;;;1.77;;
21206;SDS011;10761;48.532;8.026;2024-03-29T12:23:11;4.60;;;2.53;;
21206;SDS011;10761;48.532;8.026;2024-03-29T12:25:38;2.72;;;2.00;;
21206;SDS011;10761;48.532;8.026;2024-03-29T12:28:04;4.13;;;2.35;;
21206;SDS011;10761;48.532;8.026;2024-03-29T12:30:30;5.60;;;2.00;;
21206;SDS011;10761;48.532;8.026;2024-03-29T12:33:15;2.40;;;2.20;;
21206;SDS011;10761;48.532;8.026;2024-03-29T12:35:44;4.95;;;2.22;;
21206;SDS011;10761;48.532;8.026;2024-03-29T12:38:14;3.33;;;1.50;;
21206;SDS011;10761;48.532;8.026;2024-03-29T12:40:44;4.97;;;1.92;;
21206;SDS011;10761;48.532;8.026;2024-03-29T12:45:39;5.20;;;3.05;;
21206;SDS011;10761;48.532;8.026;2024-03-29T12:48:11;4.75;;;2.50;;
21206;SDS011;10761;48.532;8.026;2024-03-29T12:50:43;4.72;;;2.97;;
21206;SDS011;10761;48.532;8.026;2024-03-29T12:53:10;3.72;;;1.42;;
21206;SDS011;10761;48.532;8.026;2024-03-29T12:55:37;2.38;;;1.60;;
21206;SDS011;10761;48.532;8.026;2024-03-29T12:58:07;1.95;;;1.45;;
21206;SDS011;10761;48.532;8.026;2024-03-29T13:00:36;2.97;;;2.17;;
21206;SDS011;10761;48.532;8.026;2024-03-29T13:03:02;5.05;;;2.15;;
21206;SDS011;10761;48.532;8.026;2024-03-29T13:05:28;4.38;;;2.58;;
21206;SDS011;10761;48.532;8.026;2024-03-29T13:08:04;7.00;;;2.20;;
21206;SDS011;10761;48.532;8.026;2024-03-29T13:10:33;4.47;;;2.22;;
21206;SDS011;10761;48.532;8.026;2024-03-29T13:12:58;3.83;;;2.22;;
21206;SDS011;10761;48.532;8.026;2024-03-29T13:15:27;2.80;;;2.03;;
21206;SDS011;10761;48.532;8.026;2024-03-29T13:17:53;2.60;;;1.75;;
21206;SDS011;10761;48.532;8.026;2024-03-29T13:20:20;3.42;;;1.98;;
21206;SDS011;10761;48.532;8.026;2024-03-29T13:22:47;2.10;;;1.45;;
21206;SDS011;10761;48.532;8.026;2024-03-29T13:25:18;5.53;;;1.70;;
21206;SDS011;10761;48.532;8.026;2024-03-29T13:27:45;3.58;;;1.73;;
21206;SDS011;10761;48.532;8.026;2024-03-29T13:30:12;3.55;;;1.60;;
21206;SDS011;10761;48.532;8.026;2024-03-29T13:32:39;4.63;;;2.10;;
21206;SDS011;10761;48.532;8.026;2024-03-29T13:35:06;3.78;;;2.22;;
21206;SDS011;10761;48.532;8.026;2024-03-29T13:37:37;7.10;;;2.72;;
21206;SDS011;10761;48.532;8.026;2024-03-29T13:40:03;5.00;;;1.80;;
21206;SDS011;10761;48.532;8.026;2024-03-29T13:42:31;3.33;;;1.88;;
21206;SDS011;10761;48.532;8.026;2024-03-29T13:44:57;3.55;;;1.92;;
21206;SDS011;10761;48.532;8.026;2024-03-29T13:47:22;3.35;;;1.88;;
21206;SDS011;10761;48.532;8.026;2024-03-29T13:49:48;2.97;;;2.08;;
21206;SDS011;10761;48.532;8.026;2024-03-29T13:52:17;3.97;;;1.60;;
21206;SDS011;10761;48.532;8.026;2024-03-29T13:54:43;2.05;;;1.45;;
21206;SDS011;10761;48.532;8.026;2024-03-29T13:57:11;3.70;;;1.70;;
21206;SDS011;10761;48.532;8.026;2024-03-29T13:59:37;2.22;;;1.30;;
21206;SDS011;10761;48.532;8.026;2024-03-29T14:02:03;2.03;;;1.10;;
21206;SDS011;10761;48.532;8.026;2024-03-29T14:04:28;2.55;;;1.45;;
21206;SDS011;10761;48.532;8.026;2024-03-29T14:06:54;4.18;;;1.30;;
21206;SDS011;10761;48.532;8.026;2024-03-29T14:09:20;2.88;;;1.48;;
21206;SDS011;10761;48.532;8.026;2024-03-29T14:11:46;2.83;;;1.88;;
21206;SDS011;10761;48.532;8.026;2024-03-29T14:14:12;3.92;;;2.00;;
21206;SDS011;10761;48.532;8.026;2024-03-29T14:16:37;2.75;;;1.83;;
21206;SDS011;10761;48.532;8.026;2024-03-29T14:19:03;3.22;;;2.08;;
21206;SDS011;10761;48.532;8.026;2024-03-29T14:21:29;2.22;;;1.70;;
21206;SDS011;10761;48.532;8.026;2024-03-29T14:23:55;3.13;;;1.85;;
21206;SDS011;10761;48.532;8.026;2024-03-29T14:26:22;6.35;;;1.80;;
21206;SDS011;10761;48.532;8.026;2024-03-29T14:28:48;2.97;;;1.75;;
21206;SDS011;10761;48.532;8.026;2024-03-29T14:31:13;4.10;;;1.67;;
21206;SDS011;10761;48.532;8.026;2024-03-29T14:33:39;4.55;;;1.70;;
21206;SDS011;10761;48.532;8.026;2024-03-29T14:36:04;4.72;;;2.00;;
21206;SDS011;10761;48.532;8.026;2024-03-29T14:38:30;4.35;;;1.63;;
21206;SDS011;10761;48.532;8.026;2024-03-29T14:40:56;4.47;;;1.83;;
21206;SDS011;10761;48.532;8.026;2024-03-29T14:43:21;2.78;;;1.80;;
21206;SDS011;10761;48.532;8.026;2024-03-29T14:45:47;3.65;;;1.92;;
21206;SDS011;10761;48.532;8.026;2024-03-29T14:48:14;6.28;;;2.00;;
21206;SDS011;10761;48.532;8.026;2024-03-29T14:50:41;2.72;;;1.58;;